Time;durP1;ratioP1;P1;durP2;ratioP2;P2;SDS_P1;SDS_P2;PMS_P1;PMS_P2;Temp;Humidity;BMP_temperature;BMP_pressure;BME280_temperature;BME280_humidity;BME280_pressure;Samples;Min_cycle;Max_cycle;Signal;HPM_P1;HPM_P2
2023/06/18 00:00:40;;;;;;;9.88;5.88;;;;;;;21.65;47.29;101195.22;6184363;23;20001;-81
2023/06/18 00:03:06;;;;;;;9.27;6.40;;;;;;;21.57;47.36;101195.22;6183369;23;20012;-83
2023/06/18 00:05:32;;;;;;;10.32;6.40;;;;;;;21.53;47.96;101193.91;6182920;23;20005;-82
2023/06/18 00:07:58;;;;;;;9.73;6.35;;;;;;;21.51;47.62;101201.28;6182456;23;20052;-81
2023/06/18 00:10:24;;;;;;;9.20;6.00;;;;;;;21.48;48.24;101197.13;6157221;23;20012;-81
2023/06/18 00:12:51;;;;;;;8.10;6.75;;;;;;;21.45;48.02;101197.47;6182861;23;20097;-82
2023/06/18 00:15:16;;;;;;;8.35;6.22;;;;;;;21.46;48.25;101187.59;6184082;23;20481;-82
2023/06/18 00:17:42;;;;;;;8.90;6.50;;;;;;;21.42;48.40;101197.84;6183174;23;20008;-81
2023/06/18 00:20:08;;;;;;;9.32;7.03;;;;;;;21.44;48.82;101197.66;6208093;23;20033;-81
2023/06/18 00:22:38;;;;;;;10.48;6.70;;;;;;;21.42;48.46;101191.66;6182637;23;20005;-81
2023/06/18 00:25:05;;;;;;;8.27;6.90;;;;;;;21.36;48.81;101181.66;6182980;23;20028;-81
2023/06/18 00:27:30;;;;;;;10.23;6.90;;;;;;;21.34;49.03;101183.66;6157030;23;20330;-82
2023/06/18 00:29:56;;;;;;;13.70;7.25;;;;;;;21.33;48.93;101179.31;6181623;23;20028;-81
2023/06/18 00:32:22;;;;;;;9.60;6.90;;;;;;;21.31;49.16;101176.00;6182961;23;20025;-81
2023/06/18 00:34:47;;;;;;;10.02;6.80;;;;;;;21.27;49.15;101184.38;6182168;23;20346;-81
2023/06/18 00:37:13;;;;;;;8.73;6.43;;;;;;;21.21;49.45;101178.81;6156227;23;20005;-81
2023/06/18 00:39:38;;;;;;;10.23;7.10;;;;;;;21.20;49.57;101180.66;6157350;23;20426;-81
2023/06/18 00:42:11;;;;;;;8.85;7.13;;;;;;;21.13;49.83;101177.03;6183730;23;20421;-81
2023/06/18 00:44:40;;;;;;;11.27;7.20;;;;;;;21.11;50.03;101172.84;6184308;23;20012;-82
2023/06/18 00:47:14;;;;;;;10.00;7.18;;;;;;;21.05;50.00;101174.38;6183656;23;20337;-82
2023/06/18 00:49:41;;;;;;;8.55;6.68;;;;;;;21.00;50.64;101166.06;6182042;23;20214;-82
2023/06/18 00:52:14;;;;;;;10.77;6.85;;;;;;;20.98;50.48;101168.06;6182181;23;19996;-81
2023/06/18 00:54:57;;;;;;;8.43;6.78;;;;;;;20.98;50.08;101170.75;6183567;23;20012;-82
2023/06/18 00:57:24;;;;;;;9.13;7.53;;;;;;;20.88;50.87;101170.13;6155922;23;20009;-82
2023/06/18 00:59:51;;;;;;;8.50;7.20;;;;;;;20.88;51.25;101167.44;6183773;23;20001;-81
2023/06/18 01:02:23;;;;;;;7.70;6.65;;;;;;;20.86;51.12;101161.44;6181852;23;20005;-82
2023/06/18 01:04:53;;;;;;;7.82;6.68;;;;;;;20.84;51.32;101161.59;6156010;23;20008;-81
2023/06/18 01:07:22;;;;;;;12.13;7.43;;;;;;;20.80;51.71;101160.25;6183047;23;20056;-82
2023/06/18 01:09:53;;;;;;;9.20;6.63;;;;;;;20.78;51.65;101164.13;6182182;23;20008;-83
2023/06/18 01:12:27;;;;;;;9.10;7.40;;;;;;;20.71;51.88;101158.63;6182885;23;20076;-82
2023/06/18 01:14:55;;;;;;;9.52;7.07;;;;;;;20.65;52.33;101162.00;6183428;23;20431;-83
2023/06/18 01:17:21;;;;;;;9.50;7.50;;;;;;;20.62;52.42;101156.97;6182094;23;20076;-83
2023/06/18 01:20:00;;;;;;;11.07;7.03;;;;;;;20.56;52.61;101153.16;6150773;23;20018;-82
2023/06/18 01:22:41;;;;;;;9.57;7.30;;;;;;;20.49;53.03;101149.50;6152472;23;20037;-82
2023/06/18 01:25:08;;;;;;;8.80;6.60;;;;;;;20.47;53.05;101159.53;6151858;23;20138;-82
2023/06/18 01:27:40;;;;;;;12.63;6.93;;;;;;;20.36;53.56;101157.16;6176203;23;20005;-82
2023/06/18 01:30:10;;;;;;;7.22;6.53;;;;;;;20.38;53.49;101154.31;6150721;23;20023;-82
2023/06/18 01:32:36;;;;;;;12.50;7.43;;;;;;;20.34;53.76;101148.47;6150913;23;20001;-81
2023/06/18 01:35:03;;;;;;;9.25;7.18;;;;;;;20.28;53.94;101151.84;6152079;23;20140;-82
2023/06/18 01:37:35;;;;;;;9.80;7.18;;;;;;;20.26;53.99;101152.00;6150583;23;20415;-83
2023/06/18 01:40:27;;;;;;;9.63;7.10;;;;;;;20.25;53.86;101146.81;6148491;23;20037;-81
2023/06/18 01:42:58;;;;;;;8.85;7.38;;;;;;;20.13;54.94;101143.69;6152623;23;20316;-81
2023/06/18 01:45:33;;;;;;;8.68;6.85;;;;;;;20.13;54.64;101135.66;6152072;23;20415;-82
2023/06/18 01:48:04;;;;;;;9.40;7.60;;;;;;;20.06;55.06;101137.34;6150316;23;20423;-81
2023/06/18 01:50:32;;;;;;;8.77;6.82;;;;;;;20.01;55.63;101140.53;6152484;23;20006;-82
2023/06/18 01:52:59;;;;;;;6.95;6.25;;;;;;;20.08;55.51;101142.50;6152277;23;20427;-82
2023/06/18 01:55:28;;;;;;;12.20;7.38;;;;;;;19.95;56.27;101137.66;6148931;23;20420;-81
2023/06/18 01:57:55;;;;;;;8.77;7.15;;;;;;;19.96;56.68;101140.16;6152574;23;20005;-82
2023/06/18 02:00:20;;;;;;;9.98;6.43;;;;;;;19.95;57.23;101138.50;6150125;23;20001;-81
2023/06/18 02:02:51;;;;;;;7.75;6.78;;;;;;;19.88;57.03;101142.00;6150935;23;20017;-81
2023/06/18 02:05:33;;;;;;;10.93;7.70;;;;;;;19.84;56.87;101133.50;6152231;23;20336;-81
2023/06/18 02:07:59;;;;;;;8.70;7.60;;;;;;;19.78;57.08;101125.31;6152501;23;20089;-81
2023/06/18 02:10:32;;;;;;;10.00;7.40;;;;;;;19.72;57.31;101134.84;6153275;23;20028;-81
2023/06/18 02:13:00;;;;;;;8.20;7.40;;;;;;;19.66;57.69;101127.50;6150003;23;20463;-81
2023/06/18 02:15:26;;;;;;;8.48;7.57;;;;;;;19.56;57.96;101116.94;6149946;23;20332;-81
2023/06/18 02:17:51;;;;;;;10.18;7.53;;;;;;;19.53;58.23;101117.28;6153099;23;20005;-81
2023/06/18 02:20:17;;;;;;;8.20;7.40;;;;;;;19.53;58.61;101119.94;6163029;23;20033;-81
2023/06/18 02:22:42;;;;;;;8.68;7.32;;;;;;;19.45;58.83;101119.06;6181220;23;20076;-82
2023/06/18 02:25:08;;;;;;;10.10;7.43;;;;;;;19.36;59.30;101120.91;6181557;23;20039;-81
2023/06/18 02:27:36;;;;;;;11.38;7.60;;;;;;;19.30;59.10;101125.06;6155805;23;20015;-82
2023/06/18 02:30:06;;;;;;;10.43;8.18;;;;;;;19.26;59.54;101129.06;6154283;23;20100;-81
2023/06/18 02:32:34;;;;;;;11.20;8.25;;;;;;;19.28;59.36;101121.72;6181857;23;20047;-81
2023/06/18 02:34:59;;;;;;;10.50;8.25;;;;;;;19.20;59.60;101116.34;6181409;23;20549;-82
2023/06/18 02:37:25;;;;;;;11.45;8.05;;;;;;;19.18;59.83;101112.16;6181489;23;20079;-82
2023/06/18 02:39:50;;;;;;;10.27;8.73;;;;;;;19.04;60.40;101109.13;6181570;23;20327;-82
2023/06/18 02:42:20;;;;;;;12.02;8.57;;;;;;;19.03;60.47;101103.97;6181177;23;20084;-81
2023/06/18 02:44:46;;;;;;;11.23;8.52;;;;;;;19.01;60.64;101101.47;6154993;23;20338;-82
2023/06/18 02:47:13;;;;;;;10.65;8.40;;;;;;;18.93;60.97;101113.94;6181261;23;20005;-82
2023/06/18 02:49:38;;;;;;;12.10;9.02;;;;;;;18.91;61.29;101110.59;6154322;23;20080;-82
2023/06/18 02:52:12;;;;;;;13.32;8.98;;;;;;;18.90;61.07;101111.59;6181703;23;20040;-82
2023/06/18 02:54:38;;;;;;;9.90;8.95;;;;;;;18.81;61.47;101112.53;6182203;23;20001;-82
2023/06/18 02:57:06;;;;;;;11.30;9.00;;;;;;;18.79;62.05;101108.19;6180277;23;20032;-82
2023/06/18 02:59:32;;;;;;;10.30;8.98;;;;;;;18.75;62.09;101106.84;6154832;23;20490;-82
2023/06/18 03:01:57;;;;;;;11.90;9.07;;;;;;;18.70;62.26;101114.50;6180264;23;20039;-81
2023/06/18 03:04:38;;;;;;;10.20;8.13;;;;;;;18.77;62.79;101112.03;6153819;23;20051;-82
2023/06/18 03:07:13;;;;;;;10.98;8.18;;;;;;;18.73;63.25;101111.50;6205020;23;20036;-82
2023/06/18 03:09:39;;;;;;;10.57;8.50;;;;;;;18.73;63.27;101118.66;6155608;23;20005;-82
2023/06/18 03:12:04;;;;;;;9.73;8.73;;;;;;;18.67;63.31;101119.31;6204173;23;20885;-81
2023/06/18 03:14:30;;;;;;;10.02;8.70;;;;;;;18.67;63.56;101117.47;6182768;23;20060;-83
2023/06/18 03:16:56;;;;;;;10.60;9.10;;;;;;;18.62;63.55;101125.13;6181303;23;20040;-82
2023/06/18 03:19:44;;;;;;;9.95;8.55;;;;;;;18.54;63.91;101117.06;6179691;23;20047;-79
2023/06/18 03:22:14;;;;;;;11.30;10.10;;;;;;;18.54;63.14;101119.72;6180090;23;20350;-82
2023/06/18 03:24:40;;;;;;;11.60;9.75;;;;;;;18.51;63.16;101113.88;6180488;23;20001;-82
2023/06/18 03:27:06;;;;;;;11.43;10.23;;;;;;;18.52;63.07;101115.56;6155305;23;20356;-82
2023/06/18 03:29:34;;;;;;;10.88;9.88;;;;;;;18.45;63.46;101115.34;6154357;23;20008;-83
2023/06/18 03:32:03;;;;;;;11.85;10.05;;;;;;;18.45;63.56;101123.34;6181086;23;20072;-82
2023/06/18 03:34:31;;;;;;;11.93;9.90;;;;;;;18.40;64.25;101121.13;6181453;23;20017;-82
2023/06/18 03:37:00;;;;;;;11.18;9.70;;;;;;;18.43;63.55;101112.00;6152991;23;20008;-82
2023/06/18 03:39:26;;;;;;;11.23;9.98;;;;;;;18.40;63.90;101114.97;6179760;23;20374;-82
2023/06/18 03:41:51;;;;;;;13.00;10.52;;;;;;;18.36;64.09;101116.28;6154694;23;20005;-82
2023/06/18 03:44:22;;;;;;;13.70;10.50;;;;;;;18.34;63.75;101110.28;6180954;23;20001;-82
2023/06/18 03:46:47;;;;;;;12.93;10.13;;;;;;;18.33;63.68;101121.91;6180194;23;20067;-82
2023/06/18 03:49:13;;;;;;;11.88;10.13;;;;;;;18.33;63.92;101116.59;6179344;23;20024;-82
2023/06/18 03:51:38;;;;;;;14.35;9.85;;;;;;;18.31;63.68;101121.25;6180185;23;20657;-82
2023/06/18 03:54:04;;;;;;;12.52;10.40;;;;;;;18.32;63.57;101118.41;6180008;23;20004;-82
2023/06/18 03:56:46;;;;;;;11.70;10.40;;;;;;;18.39;64.30;101126.63;6154485;23;20020;-82
2023/06/18 03:59:15;;;;;;;11.27;9.60;;;;;;;18.45;65.05;101134.00;6181352;23;20079;-82
2023/06/18 04:01:43;;;;;;;10.48;9.48;;;;;;;18.55;64.63;101137.38;6180020;23;20005;-82
2023/06/18 04:04:11;;;;;;;11.23;9.60;;;;;;;18.72;63.58;101139.16;6181153;23;20011;-82
2023/06/18 04:06:46;;;;;;;13.48;9.65;;;;;;;18.99;62.81;101139.97;6155428;23;20071;-82
2023/06/18 04:09:12;;;;;;;13.13;9.60;;;;;;;19.23;62.50;101137.38;6154358;23;20040;-82
2023/06/18 04:11:42;;;;;;;12.55;10.80;;;;;;;19.38;59.84;101141.09;6179961;23;20009;-82
2023/06/18 04:14:10;;;;;;;12.30;10.27;;;;;;;19.34;59.38;101142.41;6180038;23;20005;-82
2023/06/18 04:16:42;;;;;;;12.60;11.00;;;;;;;19.33;59.30;101129.22;6182036;23;20012;-82
2023/06/18 04:19:10;;;;;;;12.52;10.88;;;;;;;19.20;60.03;101135.00;6181741;23;20008;-82
2023/06/18 04:21:36;;;;;;;12.63;10.85;;;;;;;19.05;60.65;101125.97;6179626;23;20327;-82
2023/06/18 04:24:12;;;;;;;13.40;11.20;;;;;;;18.98;60.69;101127.63;6153945;23;20020;-81
2023/06/18 04:26:42;;;;;;;12.73;11.35;;;;;;;18.85;60.83;101128.06;6181878;23;20012;-82
2023/06/18 04:29:10;;;;;;;12.27;11.15;;;;;;;18.74;61.35;101131.84;6179499;23;20008;-82
2023/06/18 04:31:35;;;;;;;13.38;11.25;;;;;;;18.72;61.11;101128.50;6180881;23;20001;-82
2023/06/18 04:34:01;;;;;;;11.88;10.68;;;;;;;18.70;61.57;101127.00;6154079;23;20005;-82
2023/06/18 04:36:27;;;;;;;12.20;11.10;;;;;;;18.73;61.60;101130.16;6180916;23;20734;-82
2023/06/18 04:38:53;;;;;;;13.32;12.02;;;;;;;18.73;61.35;101124.84;6182851;23;20005;-82
2023/06/18 04:41:18;;;;;;;12.60;11.38;;;;;;;18.73;61.34;101129.34;6183747;23;20470;-82
2023/06/18 04:43:44;;;;;;;15.63;12.07;;;;;;;18.72;61.25;101125.84;6183009;23;20088;-82
2023/06/18 04:46:10;;;;;;;14.77;11.95;;;;;;;18.70;61.42;101127.81;6182553;23;20005;-82
2023/06/18 04:48:35;;;;;;;12.98;11.77;;;;;;;18.71;61.77;101124.16;6182929;23;20044;-81
2023/06/18 04:51:02;;;;;;;14.95;11.82;;;;;;;18.76;61.23;101131.69;6181724;23;20628;-83
2023/06/18 04:53:53;;;;;;;15.63;12.15;;;;;;;18.82;60.75;101127.56;6182973;23;20108;-83
2023/06/18 04:56:19;;;;;;;16.00;12.65;;;;;;;18.84;60.42;101125.56;6182510;23;20498;-82
2023/06/18 04:59:09;;;;;;;18.23;12.60;;;;;;;18.89;60.09;101134.75;6183418;23;19998;-82
2023/06/18 05:01:35;;;;;;;13.15;11.82;;;;;;;18.99;61.24;101129.28;6183847;23;20016;-82
2023/06/18 05:04:15;;;;;;;13.25;11.95;;;;;;;19.03;60.58;101130.63;6153481;23;20005;-82
2023/06/18 05:06:43;;;;;;;14.52;12.20;;;;;;;19.04;60.48;101133.13;6183681;23;20065;-82
2023/06/18 05:09:10;;;;;;;14.18;12.73;;;;;;;19.04;60.51;101133.13;6182433;23;20083;-82
2023/06/18 05:11:35;;;;;;;19.55;11.50;;;;;;;19.15;60.06;101145.34;6181542;23;20076;-82
2023/06/18 05:14:10;;;;;;;13.45;11.95;;;;;;;19.21;60.29;101144.72;6183384;23;20075;-82
2023/06/18 05:16:35;;;;;;;16.13;11.95;;;;;;;19.31;58.79;101140.06;6183113;23;20031;-82
2023/06/18 05:19:01;;;;;;;14.48;11.93;;;;;;;19.43;56.39;101143.25;6182254;23;20013;-82
2023/06/18 05:21:38;;;;;;;12.70;11.32;;;;;;;19.50;57.06;101144.25;6180984;23;20029;-82
2023/06/18 05:24:08;;;;;;;20.40;12.57;;;;;;;19.63;55.87;101138.50;6155456;23;20059;-82
2023/06/18 05:26:34;;;;;;;13.55;11.60;;;;;;;19.73;55.07;101139.16;6182238;23;20080;-82
2023/06/18 05:29:00;;;;;;;12.73;11.32;;;;;;;19.86;54.34;101150.19;6182166;23;20437;-82
2023/06/18 05:31:27;;;;;;;13.00;11.45;;;;;;;19.99;54.09;101147.00;6181991;23;20095;-81
2023/06/18 05:33:54;;;;;;;14.38;11.75;;;;;;;20.15;54.48;101148.84;6181811;23;19997;-81
2023/06/18 05:36:22;;;;;;;13.07;11.57;;;;;;;20.26;53.99;101145.81;6155787;23;20075;-81
2023/06/18 05:39:03;;;;;;;12.45;11.02;;;;;;;20.38;53.01;101147.13;6153774;23;20005;-80
2023/06/18 05:41:28;;;;;;;13.48;10.43;;;;;;;20.51;53.08;101144.81;6155949;23;20079;-81
2023/06/18 05:43:54;;;;;;;11.80;10.60;;;;;;;20.64;53.26;101139.75;6182219;23;20005;-81
2023/06/18 05:46:19;;;;;;;11.68;9.80;;;;;;;20.77;51.35;101149.06;6154966;23;20005;-81
2023/06/18 05:48:45;;;;;;;11.30;10.10;;;;;;;20.91;50.82;101145.69;6181293;23;20040;-81
2023/06/18 05:51:10;;;;;;;11.23;9.90;;;;;;;21.02;50.21;101142.63;6182395;23;20055;-81
2023/06/18 05:53:36;;;;;;;10.40;9.40;;;;;;;21.11;49.52;101146.94;6154469;23;20005;-81
2023/06/18 05:56:01;;;;;;;11.07;9.05;;;;;;;21.21;49.06;101152.94;6155301;23;20090;-80
2023/06/18 05:58:26;;;;;;;13.98;9.95;;;;;;;21.32;47.33;101149.03;6155932;23;20617;-80
2023/06/18 06:00:52;;;;;;;10.35;9.02;;;;;;;21.38;48.00;101153.69;6180275;23;20001;-81
2023/06/18 06:03:17;;;;;;;12.80;8.63;;;;;;;21.52;46.20;101149.41;6155148;23;20016;-81
2023/06/18 06:05:43;;;;;;;13.13;8.50;;;;;;;21.60;47.22;101146.66;6154872;23;20008;-83
2023/06/18 06:08:08;;;;;;;11.48;8.05;;;;;;;21.76;48.02;101145.75;6181926;23;20044;-82
2023/06/18 06:10:35;;;;;;;10.43;7.75;;;;;;;21.89;47.24;101143.28;6155229;23;20430;-82
2023/06/18 06:13:02;;;;;;;8.50;7.00;;;;;;;22.00;45.82;101142.84;6181804;23;20032;-82
2023/06/18 06:15:27;;;;;;;8.27;6.90;;;;;;;22.13;44.58;101145.78;6155090;23;20440;-82
2023/06/18 06:17:53;;;;;;;7.82;6.60;;;;;;;22.25;45.46;101151.53;6182394;23;20012;-82
2023/06/18 06:20:18;;;;;;;10.90;6.20;;;;;;;22.41;44.50;101155.91;6181994;23;20017;-82
2023/06/18 06:22:43;;;;;;;8.05;5.75;;;;;;;22.44;43.37;101151.03;6180913;23;20001;-81
2023/06/18 06:25:15;;;;;;;8.48;5.82;;;;;;;22.41;43.30;101155.91;6183125;23;20441;-80
2023/06/18 06:27:43;;;;;;;9.80;5.72;;;;;;;22.45;42.29;101160.75;6181205;23;20004;-80
2023/06/18 06:30:10;;;;;;;7.85;5.72;;;;;;;22.39;42.70;101174.03;6181616;23;20011;-80
2023/06/18 06:32:35;;;;;;;11.50;5.78;;;;;;;22.37;43.87;101206.38;6155253;23;20449;-80
2023/06/18 06:35:02;;;;;;;9.57;5.63;;;;;;;22.25;45.12;101205.16;6180817;23;20016;-80
2023/06/18 06:37:29;;;;;;;10.73;6.28;;;;;;;22.20;44.94;101207.56;6181689;23;20607;-80
2023/06/18 06:39:54;;;;;;;8.70;6.80;;;;;;;22.08;45.33;101203.63;6181755;23;20005;-79
2023/06/18 06:42:20;;;;;;;12.52;6.68;;;;;;;22.03;46.17;101206.88;6180974;23;20005;-79
2023/06/18 06:44:45;;;;;;;9.35;7.13;;;;;;;21.97;47.24;101218.25;6181763;23;20040;-80
2023/06/18 06:47:21;;;;;;;7.88;7.07;;;;;;;21.90;48.07;101215.44;6155130;23;20012;-80
2023/06/18 06:50:03;;;;;;;13.73;7.45;;;;;;;21.80;47.82;101217.53;6152761;23;20028;-81
2023/06/18 06:52:29;;;;;;;10.60;7.40;;;;;;;21.88;48.41;101213.97;6153131;23;20059;-82
2023/06/18 06:54:54;;;;;;;12.50;7.43;;;;;;;21.96;48.45;101221.94;6181123;23;20009;-82
2023/06/18 06:57:37;;;;;;;11.00;7.85;;;;;;;21.96;48.03;101218.41;6177100;23;20009;-81
2023/06/18 07:00:06;;;;;;;8.60;7.43;;;;;;;22.06;47.90;101216.38;6175856;23;21835;-81
2023/06/18 07:02:33;;;;;;;9.50;7.93;;;;;;;22.19;46.05;101211.25;6130127;23;20009;-82
2023/06/18 07:04:59;;;;;;;11.18;8.65;;;;;;;22.20;46.67;101208.38;6155519;23;20032;-81
2023/06/18 07:07:25;;;;;;;13.88;8.50;;;;;;;22.32;46.41;101205.25;6155600;23;20004;-82
2023/06/18 07:09:50;;;;;;;10.32;8.25;;;;;;;22.44;46.54;101212.72;6154674;23;20132;-81
2023/06/18 07:12:16;;;;;;;14.18;8.63;;;;;;;22.49;46.00;101210.31;6181590;23;20001;-82
2023/06/18 07:14:44;;;;;;;11.18;8.68;;;;;;;22.37;46.61;101214.44;6155684;23;20547;-81
2023/06/18 07:17:09;;;;;;;14.60;8.57;;;;;;;22.41;47.10;101214.91;6180976;23;20151;-81
2023/06/18 07:19:35;;;;;;;9.90;8.48;;;;;;;22.46;47.24;101218.72;6181555;23;20432;-81
2023/06/18 07:22:01;;;;;;;9.48;8.00;;;;;;;22.49;47.90;101217.53;6181937;23;20025;-81
2023/06/18 07:24:26;;;;;;;10.73;8.25;;;;;;;22.58;47.27;101226.31;6154965;23;20011;-81
2023/06/18 07:26:51;;;;;;;11.48;8.88;;;;;;;22.56;47.18;101217.63;6181383;23;20415;-81
2023/06/18 07:29:18;;;;;;;17.02;9.10;;;;;;;22.48;47.32;101210.50;6181645;23;20015;-81
2023/06/18 07:31:44;;;;;;;14.40;7.78;;;;;;;22.51;48.78;101210.97;6180193;23;20001;-81
2023/06/18 07:34:10;;;;;;;12.63;8.88;;;;;;;22.61;48.00;101208.00;6179952;23;20005;-81
2023/06/18 07:36:39;;;;;;;9.27;7.60;;;;;;;22.71;48.57;101199.69;6180788;23;20343;-80
2023/06/18 07:39:04;;;;;;;8.18;7.35;;;;;;;22.86;49.39;101205.94;6153652;23;20059;-81
2023/06/18 07:41:35;;;;;;;12.00;7.82;;;;;;;22.95;48.17;101202.13;6180489;23;20036;-82
2023/06/18 07:44:05;;;;;;;9.80;7.32;;;;;;;23.13;47.14;101212.47;6180925;23;20191;-81
2023/06/18 07:46:31;;;;;;;10.55;7.80;;;;;;;23.30;47.16;101207.75;6153586;23;20032;-81
2023/06/18 07:48:56;;;;;;;14.57;8.27;;;;;;;23.34;47.65;101206.34;6179759;23;19997;-81
2023/06/18 07:51:33;;;;;;;11.95;8.43;;;;;;;23.45;47.28;101208.56;6180399;23;20005;-81
2023/06/18 07:53:58;;;;;;;10.18;7.95;;;;;;;23.48;47.88;101202.81;6179240;23;20039;-81
2023/06/18 07:56:26;;;;;;;10.38;7.57;;;;;;;23.72;47.37;101202.50;6180277;23;20009;-81
2023/06/18 07:59:02;;;;;;;10.25;7.57;;;;;;;23.74;46.74;101211.19;6180000;23;20001;-81
2023/06/18 08:01:27;;;;;;;14.63;7.63;;;;;;;23.94;47.97;101205.19;6153569;23;20036;-82
2023/06/18 08:03:53;;;;;;;10.60;7.63;;;;;;;23.84;47.18;101202.81;6181039;23;20008;-81
2023/06/18 08:06:37;;;;;;;9.40;7.32;;;;;;;23.91;47.17;101201.00;6153815;23;20001;-81
2023/06/18 08:09:03;;;;;;;10.57;7.00;;;;;;;23.97;48.17;101197.56;6181006;23;20006;-81
2023/06/18 08:11:29;;;;;;;10.82;6.80;;;;;;;24.24;47.55;101197.81;6181889;23;20423;-81
2023/06/18 08:13:54;;;;;;;10.57;7.05;;;;;;;24.39;46.15;101198.56;6181444;23;20008;-80
2023/06/18 08:16:22;;;;;;;11.20;6.88;;;;;;;24.79;47.15;101196.97;6156737;23;20009;-81
2023/06/18 08:18:48;;;;;;;17.05;7.00;;;;;;;25.01;45.14;101202.31;6182855;23;20457;-82
2023/06/18 08:21:13;;;;;;;12.63;6.82;;;;;;;25.10;45.45;101198.41;6181047;23;20009;-81
2023/06/18 08:23:48;;;;;;;7.07;6.38;;;;;;;25.07;45.92;101194.25;6182286;23;20001;-81
2023/06/18 08:26:14;;;;;;;8.73;6.43;;;;;;;25.16;45.46;101189.53;6156183;23;20016;-81
2023/06/18 08:28:40;;;;;;;8.32;6.45;;;;;;;25.15;44.91;101187.88;6181854;23;20063;-81
2023/06/18 08:31:06;;;;;;;9.63;5.85;;;;;;;25.15;46.25;101187.88;6182163;23;20028;-81
2023/06/18 08:33:31;;;;;;;10.82;6.05;;;;;;;25.16;45.53;101181.44;6182228;23;20386;-81
2023/06/18 08:35:56;;;;;;;8.32;6.45;;;;;;;25.19;45.72;101181.06;6181232;23;20005;-81
2023/06/18 08:38:22;;;;;;;9.32;6.47;;;;;;;25.12;46.08;101185.59;6182416;23;20056;-81
2023/06/18 08:40:54;;;;;;;7.63;6.38;;;;;;;25.07;45.83;101178.09;6183223;23;20005;-81
2023/06/18 08:43:26;;;;;;;7.95;6.60;;;;;;;25.08;46.28;101184.31;6181819;23;20012;-81
2023/06/18 08:45:52;;;;;;;6.95;6.22;;;;;;;25.06;46.69;101192.59;6156553;23;20013;-81
2023/06/18 08:48:23;;;;;;;8.43;6.15;;;;;;;24.97;46.75;101183.00;6181216;23;20016;-81
2023/06/18 08:50:53;;;;;;;6.18;5.63;;;;;;;24.87;47.74;101183.38;6182079;23;20043;-81
2023/06/18 08:53:25;;;;;;;8.25;6.43;;;;;;;24.84;46.95;101188.34;6156021;23;20056;-81
2023/06/18 08:55:51;;;;;;;;;;;;;;;25.11;46.33;101179.38;6181859;23;20005;-81
2023/06/18 08:58:22;;;;;;;8.93;6.50;;;;;;;24.75;48.28;101184.94;6181716;23;20337;-81
2023/06/18 09:00:51;;;;;;;7.50;6.40;;;;;;;24.68;51.12;101189.47;6181530;23;20075;-82
2023/06/18 09:03:16;;;;;;;9.02;6.65;;;;;;;24.62;46.98;101188.41;6180964;23;20532;-82
2023/06/18 09:05:42;;;;;;;7.97;6.35;;;;;;;24.59;47.77;101179.88;6155228;23;20001;-82
2023/06/18 09:08:08;;;;;;;8.82;6.50;;;;;;;24.64;47.93;101193.56;6181960;23;20008;-81
2023/06/18 09:10:35;;;;;;;8.18;6.70;;;;;;;24.61;47.80;101193.97;6181946;23;20011;-82
2023/06/18 09:13:00;;;;;;;8.57;6.82;;;;;;;24.60;48.56;101192.31;6156188;23;20099;-81
2023/06/18 09:15:26;;;;;;;11.15;6.60;;;;;;;24.74;48.51;101203.97;6182363;23;20029;-81
2023/06/18 09:17:52;;;;;;;9.18;6.35;;;;;;;24.65;49.05;101187.16;6181661;23;20051;-82
2023/06/18 09:20:20;;;;;;;10.15;7.03;;;;;;;24.61;48.20;101192.13;6182196;23;20136;-82
2023/06/18 09:22:47;;;;;;;8.35;7.10;;;;;;;24.72;48.44;101189.91;6180389;23;20423;-81
2023/06/18 09:25:21;;;;;;;11.90;6.63;;;;;;;24.63;48.83;101191.91;6179699;23;20007;-82
2023/06/18 09:27:48;;;;;;;9.18;6.35;;;;;;;24.64;48.75;101188.19;6155523;23;20071;-81
2023/06/18 09:30:23;;;;;;;8.38;6.20;;;;;;;24.71;48.58;101199.81;6182580;23;20308;-81
2023/06/18 09:33:02;;;;;;;10.15;6.80;;;;;;;24.66;48.84;101192.34;6182118;23;20387;-81
2023/06/18 09:35:36;;;;;;;9.38;6.57;;;;;;;24.59;49.25;101191.47;6154726;23;20012;-82
2023/06/18 09:38:10;;;;;;;9.82;6.90;;;;;;;24.51;49.70;101204.25;6181044;23;20843;-81
2023/06/18 09:40:35;;;;;;;10.13;6.10;;;;;;;24.55;49.87;101194.75;6156527;23;20395;-81
2023/06/18 09:43:01;;;;;;;10.90;6.80;;;;;;;24.44;50.64;101187.25;6181710;23;20005;-81
2023/06/18 09:45:26;;;;;;;9.13;7.30;;;;;;;24.50;52.77;101189.97;6180797;23;20005;-81
2023/06/18 09:47:52;;;;;;;15.75;7.30;;;;;;;24.44;55.45;101198.00;6181583;23;20005;-80
2023/06/18 09:50:18;;;;;;;9.95;7.13;;;;;;;24.21;54.83;101185.56;6181903;23;20005;-80
2023/06/18 09:53:01;;;;;;;14.68;7.03;;;;;;;24.18;56.14;101185.97;6129857;23;20033;-81
2023/06/18 09:55:29;;;;;;;10.68;7.07;;;;;;;24.10;59.26;101179.91;6155028;23;20001;-81
2023/06/18 09:57:55;;;;;;;11.25;7.88;;;;;;;24.05;59.37;101183.19;6181548;23;20009;-82
2023/06/18 10:00:21;;;;;;;8.43;7.28;;;;;;;23.99;59.13;101184.75;6180080;23;20008;-82
2023/06/18 10:03:03;;;;;;;10.48;7.70;;;;;;;23.93;58.85;101184.69;6180906;23;20001;-82
2023/06/18 10:05:30;;;;;;;8.50;7.60;;;;;;;23.92;59.47;101178.47;6180302;23;20001;-82
2023/06/18 10:07:56;;;;;;;8.90;6.93;;;;;;;23.88;59.54;101176.38;6181498;23;20001;-82
2023/06/18 10:10:26;;;;;;;10.80;7.80;;;;;;;23.87;63.42;101174.72;6182265;23;20005;-82
2023/06/18 10:12:55;;;;;;;9.82;7.47;;;;;;;23.79;60.71;101169.47;6180772;23;20001;-82
2023/06/18 10:15:25;;;;;;;11.23;7.45;;;;;;;23.84;62.21;101169.72;6180807;23;20011;-82
2023/06/18 10:17:54;;;;;;;8.25;7.45;;;;;;;23.81;61.77;101164.75;6154218;23;20023;-82
2023/06/18 10:20:21;;;;;;;10.18;7.30;;;;;;;23.75;59.43;101159.13;6154156;23;20040;-82
2023/06/18 10:22:50;;;;;;;9.27;7.20;;;;;;;23.73;59.70;101155.78;6180878;23;20001;-82
2023/06/18 10:25:20;;;;;;;11.18;7.55;;;;;;;23.63;57.99;101147.22;6181266;23;20004;-82
2023/06/18 10:27:46;;;;;;;9.63;7.93;;;;;;;23.59;59.13;101148.59;6154613;23;20131;-82
2023/06/18 10:30:12;;;;;;;9.13;7.03;;;;;;;23.54;61.49;101139.41;6181958;23;20028;-82
2023/06/18 10:32:59;;;;;;;12.38;7.50;;;;;;;23.75;60.47;101140.31;6182215;23;20001;-82
2023/06/18 10:35:26;;;;;;;8.77;6.45;;;;;;;23.71;59.07;101133.66;6154050;23;20005;-82
2023/06/18 10:37:52;;;;;;;7.82;6.80;;;;;;;23.83;58.83;101142.03;6181683;23;20332;-82
2023/06/18 10:40:19;;;;;;;12.25;7.68;;;;;;;23.78;59.73;101146.31;6181639;23;20005;-83
2023/06/18 10:42:49;;;;;;;8.10;7.13;;;;;;;23.89;58.20;101137.72;6180883;23;20005;-82
2023/06/18 10:45:16;;;;;;;8.40;7.45;;;;;;;24.03;60.68;101139.53;6154900;23;20068;-82
2023/06/18 10:47:43;;;;;;;8.60;7.15;;;;;;;24.04;58.68;101138.50;6180973;23;20011;-83
2023/06/18 10:50:10;;;;;;;10.13;7.30;;;;;;;24.16;59.69;101142.31;6183206;23;20431;-82
2023/06/18 10:52:43;;;;;;;8.38;7.10;;;;;;;24.27;58.83;101139.09;6181035;23;20424;-82
2023/06/18 10:55:12;;;;;;;11.13;8.45;;;;;;;24.45;58.27;101140.47;6180840;23;20007;-82
2023/06/18 10:57:43;;;;;;;8.90;7.50;;;;;;;24.59;57.00;101136.84;6181868;23;20008;-81
2023/06/18 11:00:24;;;;;;;9.65;7.43;;;;;;;24.76;57.65;101138.16;6180836;23;20009;-81
2023/06/18 11:03:00;;;;;;;12.90;8.13;;;;;;;24.63;55.91;101128.16;6180759;23;20036;-81
2023/06/18 11:05:35;;;;;;;8.20;7.30;;;;;;;24.70;55.32;101128.19;6154093;23;20009;-81
2023/06/18 11:08:02;;;;;;;10.10;8.93;;;;;;;24.68;56.83;101125.69;6181181;23;20008;-81
2023/06/18 11:10:42;;;;;;;8.68;7.22;;;;;;;24.58;55.37;101121.72;6179876;23;20095;-82
2023/06/18 11:13:11;;;;;;;8.57;7.10;;;;;;;24.43;55.64;101123.72;6181257;23;20040;-81
2023/06/18 11:15:57;;;;;;;10.48;7.30;;;;;;;24.57;57.25;101112.81;6180912;23;20433;-81
2023/06/18 11:18:26;;;;;;;9.32;6.43;;;;;;;24.52;56.82;101109.91;6180871;23;20001;-82
2023/06/18 11:20:58;;;;;;;7.25;5.65;;;;;;;24.35;55.82;101117.44;6180654;23;20023;-81
2023/06/18 11:23:26;;;;;;;7.00;5.78;;;;;;;24.42;57.42;101104.03;6154410;23;20005;-81
2023/06/18 11:25:52;;;;;;;8.15;6.22;;;;;;;24.28;56.33;101103.13;6181041;23;20009;-81